Shin Mei Maru — JG5617 — position and weather

sailwx.info

Track history (hours):
 
Tides and Currents Weather Stations Pressure Air Temp Water Temp Dewpoint Dewpoint Depression Visibility Wind Speed Wind Dir Waves Ship Positions

Shin Mei Maru

Last reported at 2014-Oct-30 11:31 UTC. Time now 2014-Nov-01 05:30 UTC.
Position N 33°59' E 134°58'.

Length 160 m; draft 6.8 m.

Type: Cargo ship. MMSI: 431100922.

Date/timePositionNaut miles runAvg speedWind from/ knotsBaromVisibWave heightAir tempDewpointWater temp
2014-Oct-30 11:31N 33°59' E 134°58'1818.3
2014-Oct-30 10:31N 34°18' E 134°59'1818.7
2014-Oct-30 09:33N 34°33' E 135°10'1312.7
2014-Oct-30 08:33N 34°37' E 135°25'0 0.0
2014-Oct-30 06:22N 34°37' E 135°25'0 0.0
2014-Oct-30 05:28N 34°37' E 135°25'0 0.0
2014-Oct-30 04:16N 34°37' E 135°25'0 0.0
2014-Oct-30 01:28N 34°37' E 135°25'0 0.0
2014-Oct-30 00:33N 34°37' E 135°25'1111.3
2014-Oct-29 23:34N 34°30' E 135°14'1817.4
2014-Oct-29 22:33N 34°17' E 134°59'1716.8
2014-Oct-29 21:33N 34°00' E 135°00'24014.7
2014-Oct-29 05:15N 35°06' E 139°41'1115.6
2014-Oct-29 04:33N 35°16' E 139°46'1313.2
2014-Oct-29 03:33N 35°29' E 139°49'10 1.8
2014-Oct-28 22:08N 35°38' E 139°46'610.9
2014-Oct-28 21:33N 35°33' E 139°51'1514.6
2014-Oct-28 20:33N 35°20' E 139°44'1414.3
2014-Oct-28 19:33N 35°05' E 139°46'  
2014-Oct-24 12:24N 35°03' E 139°43'1316.0
2014-Oct-24 11:33N 35°17' E 139°45'1211.9
2014-Oct-24 10:33N 35°28' E 139°48'9 0.8
2014-Oct-23 22:33N 35°37' E 139°46'1211.9
2014-Oct-23 21:33N 35°25' E 139°47'1111.2
2014-Oct-23 20:33N 35°14' E 139°47'  
Track history (hours):
 
Tides and Currents Weather Stations Pressure Air Temp Water Temp Dewpoint Dewpoint Depression Visibility Wind Speed Wind Dir Waves Ship Positions

Shin Mei Maru

Last reported at 2014-Oct-30 11:31 UTC. Time now 2014-Nov-01 05:30 UTC.
Position N 33°59' E 134°58'.

Length 160 m; draft 6.8 m.

Type: Cargo ship. MMSI: 431100922.

Date/timePositionNaut miles runAvg speedWind from/ knotsBaromVisibWave heightAir tempDewpointWater temp
2014-Oct-30 11:31N 33°59' E 134°58'1818.3
2014-Oct-30 10:31N 34°18' E 134°59'1818.7
2014-Oct-30 09:33N 34°33' E 135°10'1312.7
2014-Oct-30 08:33N 34°37' E 135°25'0 0.0
2014-Oct-30 06:22N 34°37' E 135°25'0 0.0
2014-Oct-30 05:28N 34°37' E 135°25'0 0.0
2014-Oct-30 04:16N 34°37' E 135°25'0 0.0
2014-Oct-30 01:28N 34°37' E 135°25'0 0.0
2014-Oct-30 00:33N 34°37' E 135°25'1111.3
2014-Oct-29 23:34N 34°30' E 135°14'1817.4
2014-Oct-29 22:33N 34°17' E 134°59'1716.8
2014-Oct-29 21:33N 34°00' E 135°00'24014.7
2014-Oct-29 05:15N 35°06' E 139°41'1115.6
2014-Oct-29 04:33N 35°16' E 139°46'1313.2
2014-Oct-29 03:33N 35°29' E 139°49'10 1.8
2014-Oct-28 22:08N 35°38' E 139°46'610.9
2014-Oct-28 21:33N 35°33' E 139°51'1514.6
2014-Oct-28 20:33N 35°20' E 139°44'1414.3
2014-Oct-28 19:33N 35°05' E 139°46'  
2014-Oct-24 12:24N 35°03' E 139°43'1316.0
2014-Oct-24 11:33N 35°17' E 139°45'1211.9
2014-Oct-24 10:33N 35°28' E 139°48'9 0.8
2014-Oct-23 22:33N 35°37' E 139°46'1211.9
2014-Oct-23 21:33N 35°25' E 139°47'1111.2
2014-Oct-23 20:33N 35°14' E 139°47'  

Dump ship's entire track history